sensor_id;sensor_type;location;lat;lon;timestamp;P1;durP1;ratioP1;P2;durP2;ratioP2
16854;SDS011;8543;54.522;18.550;2022-07-22T00:00:46;16.30;;;13.60;;
16854;SDS011;8543;54.522;18.550;2022-07-22T00:03:12;15.20;;;13.60;;
16854;SDS011;8543;54.522;18.550;2022-07-22T00:05:37;17.90;;;14.50;;
16854;SDS011;8543;54.522;18.550;2022-07-22T00:08:02;17.30;;;14.60;;
16854;SDS011;8543;54.522;18.550;2022-07-22T00:10:28;19.40;;;13.90;;
16854;SDS011;8543;54.522;18.550;2022-07-22T00:12:53;17.00;;;13.50;;
16854;SDS011;8543;54.522;18.550;2022-07-22T00:15:19;19.10;;;14.30;;
16854;SDS011;8543;54.522;18.550;2022-07-22T00:17:44;18.20;;;14.20;;
16854;SDS011;8543;54.522;18.550;2022-07-22T00:20:10;16.40;;;13.50;;
16854;SDS011;8543;54.522;18.550;2022-07-22T00:22:35;16.90;;;13.90;;
16854;SDS011;8543;54.522;18.550;2022-07-22T00:25:01;19.40;;;16.20;;
16854;SDS011;8543;54.522;18.550;2022-07-22T00:27:26;20.60;;;15.60;;
16854;SDS011;8543;54.522;18.550;2022-07-22T00:29:52;19.80;;;16.30;;
16854;SDS011;8543;54.522;18.550;2022-07-22T00:32:17;17.50;;;15.60;;
16854;SDS011;8543;54.522;18.550;2022-07-22T00:34:42;18.20;;;15.80;;
16854;SDS011;8543;54.522;18.550;2022-07-22T00:37:08;19.60;;;16.30;;
16854;SDS011;8543;54.522;18.550;2022-07-22T00:39:33;17.40;;;15.40;;
16854;SDS011;8543;54.522;18.550;2022-07-22T00:41:59;18.40;;;15.00;;
16854;SDS011;8543;54.522;18.550;2022-07-22T00:44:25;18.50;;;14.70;;
16854;SDS011;8543;54.522;18.550;2022-07-22T00:46:50;19.70;;;15.20;;
16854;SDS011;8543;54.522;18.550;2022-07-22T00:49:15;19.60;;;15.10;;
16854;SDS011;8543;54.522;18.550;2022-07-22T00:51:41;19.60;;;15.70;;
16854;SDS011;8543;54.522;18.550;2022-07-22T00:54:07;18.90;;;16.60;;
16854;SDS011;8543;54.522;18.550;2022-07-22T00:56:33;18.80;;;15.60;;
16854;SDS011;8543;54.522;18.550;2022-07-22T00:59:00;19.40;;;16.70;;
16854;SDS011;8543;54.522;18.550;2022-07-22T01:01:26;21.90;;;15.60;;
16854;SDS011;8543;54.522;18.550;2022-07-22T01:03:52;18.60;;;15.50;;
16854;SDS011;8543;54.522;18.550;2022-07-22T01:06:18;17.70;;;15.20;;
16854;SDS011;8543;54.522;18.550;2022-07-22T01:08:43;20.00;;;14.70;;
16854;SDS011;8543;54.522;18.550;2022-07-22T01:11:09;20.20;;;14.60;;
16854;SDS011;8543;54.522;18.550;2022-07-22T01:13:36;19.20;;;15.30;;
16854;SDS011;8543;54.522;18.550;2022-07-22T01:16:02;16.40;;;14.60;;
16854;SDS011;8543;54.522;18.550;2022-07-22T01:18:28;20.60;;;14.90;;
16854;SDS011;8543;54.522;18.550;2022-07-22T01:20:54;20.00;;;15.60;;
16854;SDS011;8543;54.522;18.550;2022-07-22T01:23:19;21.00;;;15.90;;
16854;SDS011;8543;54.522;18.550;2022-07-22T01:25:45;18.30;;;15.70;;
16854;SDS011;8543;54.522;18.550;2022-07-22T01:28:10;19.00;;;15.50;;
16854;SDS011;8543;54.522;18.550;2022-07-22T01:30:35;17.00;;;14.90;;
16854;SDS011;8543;54.522;18.550;2022-07-22T01:33:01;20.20;;;16.50;;
16854;SDS011;8543;54.522;18.550;2022-07-22T01:35:26;18.30;;;15.60;;
16854;SDS011;8543;54.522;18.550;2022-07-22T01:37:51;22.20;;;15.40;;
16854;SDS011;8543;54.522;18.550;2022-07-22T01:40:17;19.40;;;14.30;;
16854;SDS011;8543;54.522;18.550;2022-07-22T01:42:42;15.80;;;13.90;;
16854;SDS011;8543;54.522;18.550;2022-07-22T01:45:08;17.80;;;14.80;;
16854;SDS011;8543;54.522;18.550;2022-07-22T01:47:34;17.80;;;15.30;;
16854;SDS011;8543;54.522;18.550;2022-07-22T01:49:59;19.10;;;14.60;;
16854;SDS011;8543;54.522;18.550;2022-07-22T01:52:25;17.30;;;15.10;;
16854;SDS011;8543;54.522;18.550;2022-07-22T01:54:50;18.20;;;14.10;;
16854;SDS011;8543;54.522;18.550;2022-07-22T01:57:15;14.70;;;13.10;;
16854;SDS011;8543;54.522;18.550;2022-07-22T01:59:41;19.00;;;15.20;;
16854;SDS011;8543;54.522;18.550;2022-07-22T02:02:06;20.50;;;15.60;;
16854;SDS011;8543;54.522;18.550;2022-07-22T02:04:31;19.50;;;16.70;;
16854;SDS011;8543;54.522;18.550;2022-07-22T02:06:57;19.90;;;16.60;;
16854;SDS011;8543;54.522;18.550;2022-07-22T02:09:22;19.60;;;15.80;;
16854;SDS011;8543;54.522;18.550;2022-07-22T02:11:47;19.80;;;14.80;;
16854;SDS011;8543;54.522;18.550;2022-07-22T02:14:13;20.00;;;13.90;;
16854;SDS011;8543;54.522;18.550;2022-07-22T02:16:38;16.80;;;13.20;;
16854;SDS011;8543;54.522;18.550;2022-07-22T02:19:04;17.50;;;13.60;;
16854;SDS011;8543;54.522;18.550;2022-07-22T02:21:29;15.00;;;13.10;;
16854;SDS011;8543;54.522;18.550;2022-07-22T02:23:55;16.80;;;14.30;;
16854;SDS011;8543;54.522;18.550;2022-07-22T02:26:20;15.00;;;12.60;;
16854;SDS011;8543;54.522;18.550;2022-07-22T02:28:45;16.60;;;13.70;;
16854;SDS011;8543;54.522;18.550;2022-07-22T02:31:11;18.10;;;14.20;;
16854;SDS011;8543;54.522;18.550;2022-07-22T02:33:36;17.10;;;13.70;;
16854;SDS011;8543;54.522;18.550;2022-07-22T02:36:02;16.60;;;14.50;;
16854;SDS011;8543;54.522;18.550;2022-07-22T02:38:27;19.10;;;15.40;;
16854;SDS011;8543;54.522;18.550;2022-07-22T02:40:53;19.90;;;15.90;;
16854;SDS011;8543;54.522;18.550;2022-07-22T02:43:19;17.80;;;14.90;;
16854;SDS011;8543;54.522;18.550;2022-07-22T02:45:45;19.50;;;14.60;;
16854;SDS011;8543;54.522;18.550;2022-07-22T02:48:10;18.20;;;14.70;;
16854;SDS011;8543;54.522;18.550;2022-07-22T02:50:35;19.10;;;15.00;;
16854;SDS011;8543;54.522;18.550;2022-07-22T02:53:02;21.40;;;14.90;;
16854;SDS011;8543;54.522;18.550;2022-07-22T02:55:28;16.40;;;13.80;;
16854;SDS011;8543;54.522;18.550;2022-07-22T02:57:53;18.10;;;14.20;;
16854;SDS011;8543;54.522;18.550;2022-07-22T03:00:19;20.00;;;14.60;;
16854;SDS011;8543;54.522;18.550;2022-07-22T03:02:45;19.00;;;14.80;;
16854;SDS011;8543;54.522;18.550;2022-07-22T03:05:10;20.00;;;14.60;;
16854;SDS011;8543;54.522;18.550;2022-07-22T03:07:36;17.70;;;14.50;;
16854;SDS011;8543;54.522;18.550;2022-07-22T03:10:02;21.10;;;15.80;;
16854;SDS011;8543;54.522;18.550;2022-07-22T03:12:28;18.40;;;14.80;;
16854;SDS011;8543;54.522;18.550;2022-07-22T03:14:54;17.90;;;14.90;;
16854;SDS011;8543;54.522;18.550;2022-07-22T03:17:19;18.70;;;14.80;;
16854;SDS011;8543;54.522;18.550;2022-07-22T03:19:44;17.20;;;14.90;;
16854;SDS011;8543;54.522;18.550;2022-07-22T03:22:10;22.00;;;17.50;;
16854;SDS011;8543;54.522;18.550;2022-07-22T03:24:35;16.90;;;15.00;;
16854;SDS011;8543;54.522;18.550;2022-07-22T03:27:01;17.60;;;14.70;;
16854;SDS011;8543;54.522;18.550;2022-07-22T03:29:26;18.20;;;14.90;;
16854;SDS011;8543;54.522;18.550;2022-07-22T03:31:51;18.70;;;15.30;;
16854;SDS011;8543;54.522;18.550;2022-07-22T03:34:17;17.40;;;14.70;;
16854;SDS011;8543;54.522;18.550;2022-07-22T03:36:42;17.30;;;14.50;;
16854;SDS011;8543;54.522;18.550;2022-07-22T03:39:07;18.20;;;14.50;;
16854;SDS011;8543;54.522;18.550;2022-07-22T03:41:33;16.70;;;13.10;;
16854;SDS011;8543;54.522;18.550;2022-07-22T03:43:58;16.10;;;13.10;;
16854;SDS011;8543;54.522;18.550;2022-07-22T03:46:23;17.30;;;13.80;;
16854;SDS011;8543;54.522;18.550;2022-07-22T03:48:49;18.50;;;14.20;;
16854;SDS011;8543;54.522;18.550;2022-07-22T03:51:14;15.80;;;13.50;;
16854;SDS011;8543;54.522;18.550;2022-07-22T03:53:40;14.60;;;12.50;;
16854;SDS011;8543;54.522;18.550;2022-07-22T03:56:05;16.40;;;13.10;;
16854;SDS011;8543;54.522;18.550;2022-07-22T03:58:31;15.30;;;13.00;;
16854;SDS011;8543;54.522;18.550;2022-07-22T04:00:57;14.00;;;12.50;;
16854;SDS011;8543;54.522;18.550;2022-07-22T04:03:22;16.10;;;13.20;;
16854;SDS011;8543;54.522;18.550;2022-07-22T04:05:47;15.90;;;13.40;;
16854;SDS011;8543;54.522;18.550;2022-07-22T04:08:13;15.10;;;12.30;;
16854;SDS011;8543;54.522;18.550;2022-07-22T04:10:38;15.40;;;12.40;;
16854;SDS011;8543;54.522;18.550;2022-07-22T04:13:04;14.70;;;13.00;;
16854;SDS011;8543;54.522;18.550;2022-07-22T04:15:30;14.50;;;12.20;;
16854;SDS011;8543;54.522;18.550;2022-07-22T04:17:55;15.10;;;13.40;;
16854;SDS011;8543;54.522;18.550;2022-07-22T04:20:20;15.00;;;12.00;;
16854;SDS011;8543;54.522;18.550;2022-07-22T04:22:46;16.70;;;12.90;;
16854;SDS011;8543;54.522;18.550;2022-07-22T04:25:11;18.10;;;12.60;;
16854;SDS011;8543;54.522;18.550;2022-07-22T04:27:37;14.60;;;12.90;;
16854;SDS011;8543;54.522;18.550;2022-07-22T04:30:02;16.50;;;13.10;;
16854;SDS011;8543;54.522;18.550;2022-07-22T04:32:28;15.50;;;12.70;;
16854;SDS011;8543;54.522;18.550;2022-07-22T04:34:53;15.10;;;13.00;;
16854;SDS011;8543;54.522;18.550;2022-07-22T04:37:19;13.40;;;12.00;;
16854;SDS011;8543;54.522;18.550;2022-07-22T04:39:44;13.70;;;12.20;;
16854;SDS011;8543;54.522;18.550;2022-07-22T04:42:10;13.40;;;12.00;;
16854;SDS011;8543;54.522;18.550;2022-07-22T04:44:35;18.50;;;12.80;;
16854;SDS011;8543;54.522;18.550;2022-07-22T04:47:00;16.60;;;12.90;;
16854;SDS011;8543;54.522;18.550;2022-07-22T04:49:26;16.50;;;12.30;;
16854;SDS011;8543;54.522;18.550;2022-07-22T04:51:51;16.80;;;12.80;;
16854;SDS011;8543;54.522;18.550;2022-07-22T04:54:17;16.40;;;12.70;;
16854;SDS011;8543;54.522;18.550;2022-07-22T04:56:42;17.80;;;13.00;;
16854;SDS011;8543;54.522;18.550;2022-07-22T04:59:08;15.90;;;12.60;;
16854;SDS011;8543;54.522;18.550;2022-07-22T05:01:33;14.30;;;11.80;;
16854;SDS011;8543;54.522;18.550;2022-07-22T05:03:58;19.30;;;12.60;;
16854;SDS011;8543;54.522;18.550;2022-07-22T05:06:24;16.90;;;12.20;;
16854;SDS011;8543;54.522;18.550;2022-07-22T05:08:49;16.00;;;12.50;;
16854;SDS011;8543;54.522;18.550;2022-07-22T05:11:14;17.60;;;12.50;;
16854;SDS011;8543;54.522;18.550;2022-07-22T05:13:40;18.00;;;12.40;;
16854;SDS011;8543;54.522;18.550;2022-07-22T05:16:05;21.40;;;13.70;;
16854;SDS011;8543;54.522;18.550;2022-07-22T05:18:31;18.70;;;12.70;;
16854;SDS011;8543;54.522;18.550;2022-07-22T05:20:56;16.50;;;12.40;;
16854;SDS011;8543;54.522;18.550;2022-07-22T05:23:22;15.70;;;13.40;;
16854;SDS011;8543;54.522;18.550;2022-07-22T05:25:47;16.80;;;12.30;;
16854;SDS011;8543;54.522;18.550;2022-07-22T05:28:13;18.20;;;13.30;;
16854;SDS011;8543;54.522;18.550;2022-07-22T05:30:38;19.40;;;13.20;;
16854;SDS011;8543;54.522;18.550;2022-07-22T05:33:03;14.20;;;12.30;;
16854;SDS011;8543;54.522;18.550;2022-07-22T05:35:29;13.10;;;11.30;;
16854;SDS011;8543;54.522;18.550;2022-07-22T05:37:54;15.50;;;11.90;;
16854;SDS011;8543;54.522;18.550;2022-07-22T05:40:21;15.60;;;12.00;;
16854;SDS011;8543;54.522;18.550;2022-07-22T05:42:47;22.30;;;13.50;;
16854;SDS011;8543;54.522;18.550;2022-07-22T05:45:12;18.20;;;12.30;;
16854;SDS011;8543;54.522;18.550;2022-07-22T05:47:38;16.80;;;12.80;;
16854;SDS011;8543;54.522;18.550;2022-07-22T05:50:03;16.50;;;12.80;;
16854;SDS011;8543;54.522;18.550;2022-07-22T05:52:29;14.00;;;12.50;;
16854;SDS011;8543;54.522;18.550;2022-07-22T05:54:54;14.30;;;12.20;;
16854;SDS011;8543;54.522;18.550;2022-07-22T05:57:20;15.70;;;13.40;;
16854;SDS011;8543;54.522;18.550;2022-07-22T05:59:45;15.40;;;12.20;;
16854;SDS011;8543;54.522;18.550;2022-07-22T06:02:10;17.90;;;14.40;;
16854;SDS011;8543;54.522;18.550;2022-07-22T06:04:36;15.40;;;12.50;;
16854;SDS011;8543;54.522;18.550;2022-07-22T06:07:01;16.50;;;12.00;;
16854;SDS011;8543;54.522;18.550;2022-07-22T06:09:27;17.60;;;13.70;;
16854;SDS011;8543;54.522;18.550;2022-07-22T06:11:52;16.90;;;12.60;;
16854;SDS011;8543;54.522;18.550;2022-07-22T06:14:17;15.80;;;12.60;;
16854;SDS011;8543;54.522;18.550;2022-07-22T06:16:43;11.10;;;9.90;;
16854;SDS011;8543;54.522;18.550;2022-07-22T06:19:08;14.70;;;11.60;;
16854;SDS011;8543;54.522;18.550;2022-07-22T06:21:34;18.90;;;12.50;;
16854;SDS011;8543;54.522;18.550;2022-07-22T06:23:59;18.70;;;13.40;;
16854;SDS011;8543;54.522;18.550;2022-07-22T06:26:25;23.60;;;14.20;;
16854;SDS011;8543;54.522;18.550;2022-07-22T06:28:50;17.90;;;14.00;;
16854;SDS011;8543;54.522;18.550;2022-07-22T06:31:15;17.30;;;14.90;;
16854;SDS011;8543;54.522;18.550;2022-07-22T06:33:41;19.80;;;16.50;;
16854;SDS011;8543;54.522;18.550;2022-07-22T06:36:07;26.00;;;16.10;;
16854;SDS011;8543;54.522;18.550;2022-07-22T06:38:33;22.30;;;15.70;;
16854;SDS011;8543;54.522;18.550;2022-07-22T06:40:58;18.80;;;14.80;;
16854;SDS011;8543;54.522;18.550;2022-07-22T06:43:23;21.00;;;15.60;;
16854;SDS011;8543;54.522;18.550;2022-07-22T06:45:49;20.70;;;14.90;;
16854;SDS011;8543;54.522;18.550;2022-07-22T06:48:15;18.00;;;14.40;;
16854;SDS011;8543;54.522;18.550;2022-07-22T06:50:41;16.50;;;14.50;;
16854;SDS011;8543;54.522;18.550;2022-07-22T06:53:06;17.00;;;14.10;;
16854;SDS011;8543;54.522;18.550;2022-07-22T06:55:31;20.20;;;15.80;;
16854;SDS011;8543;54.522;18.550;2022-07-22T06:57:57;17.80;;;15.20;;
16854;SDS011;8543;54.522;18.550;2022-07-22T07:00:23;20.50;;;15.60;;
16854;SDS011;8543;54.522;18.550;2022-07-22T07:02:48;19.10;;;15.10;;
16854;SDS011;8543;54.522;18.550;2022-07-22T07:05:14;21.30;;;16.20;;
16854;SDS011;8543;54.522;18.550;2022-07-22T07:07:39;19.80;;;15.80;;
16854;SDS011;8543;54.522;18.550;2022-07-22T07:10:04;19.50;;;14.50;;
16854;SDS011;8543;54.522;18.550;2022-07-22T07:12:30;17.10;;;13.60;;
16854;SDS011;8543;54.522;18.550;2022-07-22T07:14:56;16.20;;;11.80;;
16854;SDS011;8543;54.522;18.550;2022-07-22T07:17:21;16.20;;;12.60;;
16854;SDS011;8543;54.522;18.550;2022-07-22T07:19:46;17.60;;;13.10;;
16854;SDS011;8543;54.522;18.550;2022-07-22T07:22:12;18.60;;;13.70;;
16854;SDS011;8543;54.522;18.550;2022-07-22T07:24:37;18.90;;;15.50;;
16854;SDS011;8543;54.522;18.550;2022-07-22T07:27:02;18.20;;;14.90;;
16854;SDS011;8543;54.522;18.550;2022-07-22T07:29:28;17.80;;;13.70;;
16854;SDS011;8543;54.522;18.550;2022-07-22T07:31:53;18.50;;;13.60;;
16854;SDS011;8543;54.522;18.550;2022-07-22T07:34:18;22.90;;;12.80;;
16854;SDS011;8543;54.522;18.550;2022-07-22T07:36:44;25.60;;;13.90;;
16854;SDS011;8543;54.522;18.550;2022-07-22T07:39:09;28.20;;;14.00;;
16854;SDS011;8543;54.522;18.550;2022-07-22T07:41:35;24.30;;;12.90;;
16854;SDS011;8543;54.522;18.550;2022-07-22T07:44:00;16.00;;;11.90;;
16854;SDS011;8543;54.522;18.550;2022-07-22T07:46:26;15.70;;;11.50;;
16854;SDS011;8543;54.522;18.550;2022-07-22T07:48:51;17.80;;;13.50;;
16854;SDS011;8543;54.522;18.550;2022-07-22T07:51:17;21.00;;;16.90;;
16854;SDS011;8543;54.522;18.550;2022-07-22T07:53:42;23.40;;;17.50;;
16854;SDS011;8543;54.522;18.550;2022-07-22T07:56:08;20.10;;;16.40;;
16854;SDS011;8543;54.522;18.550;2022-07-22T07:58:33;17.60;;;13.80;;
16854;SDS011;8543;54.522;18.550;2022-07-22T08:00:58;14.30;;;11.50;;
16854;SDS011;8543;54.522;18.550;2022-07-22T08:03:24;12.40;;;9.90;;
16854;SDS011;8543;54.522;18.550;2022-07-22T08:05:49;14.80;;;11.70;;
16854;SDS011;8543;54.522;18.550;2022-07-22T08:08:15;13.10;;;11.00;;
16854;SDS011;8543;54.522;18.550;2022-07-22T08:10:40;14.70;;;12.10;;
16854;SDS011;8543;54.522;18.550;2022-07-22T08:13:06;15.40;;;12.90;;
16854;SDS011;8543;54.522;18.550;2022-07-22T08:15:31;19.50;;;14.30;;
16854;SDS011;8543;54.522;18.550;2022-07-22T08:17:57;16.80;;;12.90;;
16854;SDS011;8543;54.522;18.550;2022-07-22T08:20:24;17.40;;;13.40;;
16854;SDS011;8543;54.522;18.550;2022-07-22T08:22:52;18.40;;;15.20;;
16854;SDS011;8543;54.522;18.550;2022-07-22T08:25:18;19.50;;;14.30;;
16854;SDS011;8543;54.522;18.550;2022-07-22T08:27:44;16.80;;;14.30;;
16854;SDS011;8543;54.522;18.550;2022-07-22T08:30:10;17.50;;;13.30;;
16854;SDS011;8543;54.522;18.550;2022-07-22T08:32:36;17.60;;;12.90;;
16854;SDS011;8543;54.522;18.550;2022-07-22T08:35:02;21.60;;;16.20;;
16854;SDS011;8543;54.522;18.550;2022-07-22T08:37:28;20.20;;;17.20;;
16854;SDS011;8543;54.522;18.550;2022-07-22T08:39:53;13.90;;;12.10;;
16854;SDS011;8543;54.522;18.550;2022-07-22T08:42:20;13.00;;;11.40;;
16854;SDS011;8543;54.522;18.550;2022-07-22T08:44:47;15.30;;;11.70;;
16854;SDS011;8543;54.522;18.550;2022-07-22T08:47:14;15.40;;;12.50;;
16854;SDS011;8543;54.522;18.550;2022-07-22T08:49:39;15.10;;;12.70;;
16854;SDS011;8543;54.522;18.550;2022-07-22T08:52:05;22.90;;;17.40;;
16854;SDS011;8543;54.522;18.550;2022-07-22T08:54:31;20.40;;;18.00;;
16854;SDS011;8543;54.522;18.550;2022-07-22T08:56:56;22.40;;;17.70;;
16854;SDS011;8543;54.522;18.550;2022-07-22T08:59:21;19.20;;;15.60;;
16854;SDS011;8543;54.522;18.550;2022-07-22T09:02:06;19.10;;;15.50;;
16854;SDS011;8543;54.522;18.550;2022-07-22T09:04:49;19.80;;;14.10;;
16854;SDS011;8543;54.522;18.550;2022-07-22T09:07:22;16.20;;;13.00;;
16854;SDS011;8543;54.522;18.550;2022-07-22T09:10:10;15.40;;;13.70;;
16854;SDS011;8543;54.522;18.550;2022-07-22T09:12:57;18.60;;;13.50;;
16854;SDS011;8543;54.522;18.550;2022-07-22T09:15:27;16.20;;;13.10;;
16854;SDS011;8543;54.522;18.550;2022-07-22T09:17:58;14.90;;;13.30;;
16854;SDS011;8543;54.522;18.550;2022-07-22T09:20:24;18.80;;;16.30;;
16854;SDS011;8543;54.522;18.550;2022-07-22T09:22:50;16.80;;;14.70;;
16854;SDS011;8543;54.522;18.550;2022-07-22T09:25:29;17.80;;;15.40;;
16854;SDS011;8543;54.522;18.550;2022-07-22T09:30:30;20.00;;;18.10;;
16854;SDS011;8543;54.522;18.550;2022-07-22T09:32:56;24.30;;;21.20;;
16854;SDS011;8543;54.522;18.550;2022-07-22T09:35:22;23.50;;;20.90;;
16854;SDS011;8543;54.522;18.550;2022-07-22T09:37:54;24.90;;;22.20;;
16854;SDS011;8543;54.522;18.550;2022-07-22T09:40:24;23.00;;;20.60;;
16854;SDS011;8543;54.522;18.550;2022-07-22T09:42:55;22.80;;;19.90;;
16854;SDS011;8543;54.522;18.550;2022-07-22T09:45:22;20.50;;;18.10;;
16854;SDS011;8543;54.522;18.550;2022-07-22T09:50:23;23.10;;;20.00;;
16854;SDS011;8543;54.522;18.550;2022-07-22T09:52:55;18.60;;;16.40;;
16854;SDS011;8543;54.522;18.550;2022-07-22T09:55:22;18.70;;;16.10;;
16854;SDS011;8543;54.522;18.550;2022-07-22T09:57:49;18.10;;;16.30;;
16854;SDS011;8543;54.522;18.550;2022-07-22T10:00:17;20.00;;;17.30;;
16854;SDS011;8543;54.522;18.550;2022-07-22T10:02:54;19.10;;;17.00;;
16854;SDS011;8543;54.522;18.550;2022-07-22T10:05:25;20.30;;;17.10;;
16854;SDS011;8543;54.522;18.550;2022-07-22T10:07:52;16.50;;;14.90;;
16854;SDS011;8543;54.522;18.550;2022-07-22T10:10:19;25.50;;;19.50;;
16854;SDS011;8543;54.522;18.550;2022-07-22T10:12:50;31.30;;;21.40;;
16854;SDS011;8543;54.522;18.550;2022-07-22T10:15:17;28.30;;;21.80;;
16854;SDS011;8543;54.522;18.550;2022-07-22T10:17:45;26.30;;;21.00;;
16854;SDS011;8543;54.522;18.550;2022-07-22T10:20:13;26.60;;;20.70;;
16854;SDS011;8543;54.522;18.550;2022-07-22T10:25:09;24.90;;;20.10;;
16854;SDS011;8543;54.522;18.550;2022-07-22T10:33:05;32.90;;;22.30;;
16854;SDS011;8543;54.522;18.550;2022-07-22T10:35:33;27.60;;;23.50;;
16854;SDS011;8543;54.522;18.550;2022-07-22T10:38:01;28.90;;;24.90;;
16854;SDS011;8543;54.522;18.550;2022-07-22T10:40:29;28.30;;;23.40;;
16854;SDS011;8543;54.522;18.550;2022-07-22T10:43:11;25.40;;;21.70;;
16854;SDS011;8543;54.522;18.550;2022-07-22T10:48:12;25.20;;;20.40;;
16854;SDS011;8543;54.522;18.550;2022-07-22T10:50:40;27.40;;;20.50;;
16854;SDS011;8543;54.522;18.550;2022-07-22T10:53:08;22.40;;;18.50;;
16854;SDS011;8543;54.522;18.550;2022-07-22T10:55:35;22.50;;;19.10;;
16854;SDS011;8543;54.522;18.550;2022-07-22T11:01:03;25.70;;;18.90;;
16854;SDS011;8543;54.522;18.550;2022-07-22T11:03:30;19.40;;;17.10;;
16854;SDS011;8543;54.522;18.550;2022-07-22T11:05:57;22.40;;;18.10;;
16854;SDS011;8543;54.522;18.550;2022-07-22T11:09:00;18.00;;;15.80;;
16854;SDS011;8543;54.522;18.550;2022-07-22T11:11:32;16.60;;;14.10;;
16854;SDS011;8543;54.522;18.550;2022-07-22T11:14:00;21.70;;;18.10;;
16854;SDS011;8543;54.522;18.550;2022-07-22T11:16:26;18.90;;;16.70;;
16854;SDS011;8543;54.522;18.550;2022-07-22T11:21:19;21.10;;;16.20;;
16854;SDS011;8543;54.522;18.550;2022-07-22T11:23:47;19.60;;;16.40;;
16854;SDS011;8543;54.522;18.550;2022-07-22T11:26:14;21.40;;;16.10;;
16854;SDS011;8543;54.522;18.550;2022-07-22T11:28:44;20.30;;;16.00;;
16854;SDS011;8543;54.522;18.550;2022-07-22T11:31:13;21.40;;;18.20;;
16854;SDS011;8543;54.522;18.550;2022-07-22T11:33:40;18.60;;;16.10;;
16854;SDS011;8543;54.522;18.550;2022-07-22T11:36:06;20.60;;;16.80;;
16854;SDS011;8543;54.522;18.550;2022-07-22T11:38:48;20.00;;;16.50;;
16854;SDS011;8543;54.522;18.550;2022-07-22T11:41:16;16.90;;;15.10;;
16854;SDS011;8543;54.522;18.550;2022-07-22T11:43:45;21.00;;;18.60;;
16854;SDS011;8543;54.522;18.550;2022-07-22T11:46:13;25.40;;;20.50;;
16854;SDS011;8543;54.522;18.550;2022-07-22T11:48:39;23.60;;;19.60;;
16854;SDS011;8543;54.522;18.550;2022-07-22T11:51:05;27.10;;;21.00;;
16854;SDS011;8543;54.522;18.550;2022-07-22T11:53:31;27.50;;;22.40;;
16854;SDS011;8543;54.522;18.550;2022-07-22T11:56:02;23.90;;;20.90;;
16854;SDS011;8543;54.522;18.550;2022-07-22T11:58:44;24.20;;;21.00;;
16854;SDS011;8543;54.522;18.550;2022-07-22T12:01:12;23.10;;;19.10;;
16854;SDS011;8543;54.522;18.550;2022-07-22T12:03:41;25.10;;;19.10;;
16854;SDS011;8543;54.522;18.550;2022-07-22T12:06:12;23.60;;;16.20;;
16854;SDS011;8543;54.522;18.550;2022-07-22T12:08:42;18.50;;;15.10;;
16854;SDS011;8543;54.522;18.550;2022-07-22T12:11:09;26.00;;;18.50;;
16854;SDS011;8543;54.522;18.550;2022-07-22T12:13:37;24.00;;;16.70;;
16854;SDS011;8543;54.522;18.550;2022-07-22T12:19:07;17.60;;;12.60;;
16854;SDS011;8543;54.522;18.550;2022-07-22T12:21:49;19.10;;;13.10;;
16854;SDS011;8543;54.522;18.550;2022-07-22T12:26:59;15.30;;;12.10;;
16854;SDS011;8543;54.522;18.550;2022-07-22T12:32:01;20.20;;;14.40;;
16854;SDS011;8543;54.522;18.550;2022-07-22T12:39:38;25.60;;;16.90;;
16854;SDS011;8543;54.522;18.550;2022-07-22T12:42:14;22.80;;;17.30;;
16854;SDS011;8543;54.522;18.550;2022-07-22T12:45:00;22.80;;;17.20;;
16854;SDS011;8543;54.522;18.550;2022-07-22T12:47:40;17.80;;;13.70;;
16854;SDS011;8543;54.522;18.550;2022-07-22T12:53:04;15.60;;;11.50;;
16854;SDS011;8543;54.522;18.550;2022-07-22T12:55:44;20.00;;;15.30;;
16854;SDS011;8543;54.522;18.550;2022-07-22T12:58:11;21.30;;;16.60;;
16854;SDS011;8543;54.522;18.550;2022-07-22T13:00:38;21.40;;;16.00;;
16854;SDS011;8543;54.522;18.550;2022-07-22T13:03:05;24.30;;;18.50;;
16854;SDS011;8543;54.522;18.550;2022-07-22T13:05:30;25.50;;;19.00;;
16854;SDS011;8543;54.522;18.550;2022-07-22T13:07:56;30.10;;;19.10;;
16854;SDS011;8543;54.522;18.550;2022-07-22T13:10:22;27.20;;;18.80;;
16854;SDS011;8543;54.522;18.550;2022-07-22T13:12:48;28.30;;;18.80;;
16854;SDS011;8543;54.522;18.550;2022-07-22T13:15:14;21.40;;;18.00;;
16854;SDS011;8543;54.522;18.550;2022-07-22T13:17:40;24.00;;;19.50;;
16854;SDS011;8543;54.522;18.550;2022-07-22T13:20:07;25.90;;;21.00;;
16854;SDS011;8543;54.522;18.550;2022-07-22T13:22:34;27.60;;;21.70;;
16854;SDS011;8543;54.522;18.550;2022-07-22T13:24:59;27.00;;;21.90;;
16854;SDS011;8543;54.522;18.550;2022-07-22T13:27:25;25.80;;;22.30;;
16854;SDS011;8543;54.522;18.550;2022-07-22T13:29:50;26.60;;;22.90;;
16854;SDS011;8543;54.522;18.550;2022-07-22T13:32:16;23.00;;;20.60;;
16854;SDS011;8543;54.522;18.550;2022-07-22T13:34:41;23.40;;;21.00;;
16854;SDS011;8543;54.522;18.550;2022-07-22T13:37:07;24.60;;;21.90;;
16854;SDS011;8543;54.522;18.550;2022-07-22T13:39:33;24.70;;;22.10;;
16854;SDS011;8543;54.522;18.550;2022-07-22T13:41:58;23.30;;;20.60;;
16854;SDS011;8543;54.522;18.550;2022-07-22T13:44:24;21.90;;;19.60;;
16854;SDS011;8543;54.522;18.550;2022-07-22T13:46:49;23.20;;;17.80;;
16854;SDS011;8543;54.522;18.550;2022-07-22T13:49:14;21.10;;;17.50;;
16854;SDS011;8543;54.522;18.550;2022-07-22T13:51:40;19.50;;;17.50;;
16854;SDS011;8543;54.522;18.550;2022-07-22T13:54:05;19.10;;;17.10;;
16854;SDS011;8543;54.522;18.550;2022-07-22T13:56:31;18.10;;;16.30;;
16854;SDS011;8543;54.522;18.550;2022-07-22T13:58:57;17.40;;;14.30;;
16854;SDS011;8543;54.522;18.550;2022-07-22T14:01:23;14.90;;;13.30;;
16854;SDS011;8543;54.522;18.550;2022-07-22T14:03:49;13.60;;;11.60;;
16854;SDS011;8543;54.522;18.550;2022-07-22T14:06:14;13.40;;;10.30;;
16854;SDS011;8543;54.522;18.550;2022-07-22T14:08:39;12.70;;;10.00;;
16854;SDS011;8543;54.522;18.550;2022-07-22T14:11:05;13.70;;;9.00;;
16854;SDS011;8543;54.522;18.550;2022-07-22T14:13:30;10.30;;;9.20;;
16854;SDS011;8543;54.522;18.550;2022-07-22T14:15:56;13.00;;;11.50;;
16854;SDS011;8543;54.522;18.550;2022-07-22T14:18:21;10.80;;;9.50;;
16854;SDS011;8543;54.522;18.550;2022-07-22T14:20:48;9.80;;;8.50;;
16854;SDS011;8543;54.522;18.550;2022-07-22T14:23:14;11.10;;;8.40;;
16854;SDS011;8543;54.522;18.550;2022-07-22T14:25:41;10.40;;;8.60;;
16854;SDS011;8543;54.522;18.550;2022-07-22T14:28:07;8.50;;;7.30;;
16854;SDS011;8543;54.522;18.550;2022-07-22T14:30:33;11.10;;;8.30;;
16854;SDS011;8543;54.522;18.550;2022-07-22T14:32:59;9.20;;;7.80;;
16854;SDS011;8543;54.522;18.550;2022-07-22T14:35:25;10.30;;;7.60;;
16854;SDS011;8543;54.522;18.550;2022-07-22T14:37:51;10.30;;;7.80;;
16854;SDS011;8543;54.522;18.550;2022-07-22T14:40:16;9.60;;;7.50;;
16854;SDS011;8543;54.522;18.550;2022-07-22T14:42:42;10.40;;;7.50;;
16854;SDS011;8543;54.522;18.550;2022-07-22T14:45:08;9.20;;;8.20;;
16854;SDS011;8543;54.522;18.550;2022-07-22T14:47:36;11.80;;;7.80;;
16854;SDS011;8543;54.522;18.550;2022-07-22T14:50:02;9.80;;;7.80;;
16854;SDS011;8543;54.522;18.550;2022-07-22T14:52:29;8.90;;;7.40;;
16854;SDS011;8543;54.522;18.550;2022-07-22T14:54:54;9.10;;;7.80;;
16854;SDS011;8543;54.522;18.550;2022-07-22T14:57:19;11.00;;;8.60;;